Time;durP1;ratioP1;P1;durP2;ratioP2;P2;SDS_P1;SDS_P2;PMS_P1;PMS_P2;Temp;Humidity;BMP_temperature;BMP_pressure;BME280_temperature;BME280_humidity;BME280_pressure;Samples;Min_cycle;Max_cycle;Signal;HPM_P1;HPM_P2
2023/10/15 00:00:00;;;;;;;3.30;1.70;;;9.30;1.00;;;;;;4984651;28;20441;-82
2023/10/15 00:02:25;;;;;;;3.17;1.60;;;9.10;1.00;;;;;;4968027;28;20408;-82
2023/10/15 00:04:51;;;;;;;2.67;1.52;;;9.20;1.00;;;;;;4973731;28;20504;-83
2023/10/15 00:07:17;;;;;;;3.20;2.00;;;9.10;1.00;;;;;;4972907;28;20422;-82
2023/10/15 00:09:42;;;;;;;3.50;1.70;;;9.20;1.00;;;;;;4983113;28;20473;-83
2023/10/15 00:12:08;;;;;;;3.15;1.67;;;9.20;1.00;;;;;;4983359;28;20408;-82
2023/10/15 00:14:33;;;;;;;2.73;1.70;;;9.20;1.00;;;;;;4975181;28;20412;-82
2023/10/15 00:17:01;;;;;;;3.70;1.77;;;9.20;1.00;;;;;;4974500;28;20420;-82
2023/10/15 00:19:27;;;;;;;2.70;2.08;;;9.10;1.00;;;;;;4975398;28;20392;-83
2023/10/15 00:21:53;;;;;;;4.57;2.10;;;9.30;1.00;;;;;;4974048;28;20411;-83
2023/10/15 00:24:19;;;;;;;4.10;1.80;;;9.20;1.00;;;;;;4973091;28;20753;-83
2023/10/15 00:26:44;;;;;;;3.00;1.60;;;9.10;1.00;;;;;;4968516;28;20410;-83
2023/10/15 00:29:10;;;;;;;2.35;1.58;;;9.20;1.00;;;;;;4964473;28;20421;-82
2023/10/15 00:31:37;;;;;;;4.32;1.73;;;9.00;1.00;;;;;;4970387;28;20455;-83
2023/10/15 00:34:04;;;;;;;3.83;1.60;;;9.30;1.00;;;;;;4973919;28;20420;-83
2023/10/15 00:36:29;;;;;;;3.55;1.50;;;9.20;1.00;;;;;;4972553;28;20414;-83
2023/10/15 00:38:55;;;;;;;3.80;1.80;;;9.20;1.00;;;;;;4982052;28;20412;-83
2023/10/15 00:41:20;;;;;;;2.83;1.90;;;9.20;1.00;;;;;;4996118;28;20434;-83
2023/10/15 00:43:51;;;;;;;3.87;1.60;;;8.80;1.00;;;;;;4975294;28;20474;-83
2023/10/15 00:46:17;;;;;;;4.17;1.73;;;9.10;1.00;;;;;;4974285;28;20396;-83
2023/10/15 00:48:43;;;;;;;2.63;1.52;;;9.10;1.00;;;;;;4979504;28;20384;-83
2023/10/15 00:51:17;;;;;;;3.40;1.70;;;9.10;1.00;;;;;;4978629;28;20392;-83
2023/10/15 00:53:50;;;;;;;2.80;1.70;;;9.20;1.00;;;;;;4978525;28;20888;-83
2023/10/15 00:56:22;;;;;;;2.22;1.60;;;9.20;1.00;;;;;;4982165;28;20422;-82
2023/10/15 01:03:53;;;;;;;3.47;1.88;;;9.00;1.00;;;;;;4978118;28;20388;-83
2023/10/15 01:06:30;;;;;;;4.07;1.85;;;9.20;1.00;;;;;;4975904;28;20913;-83
2023/10/15 01:08:59;;;;;;;4.60;2.00;;;9.40;1.00;;;;;;4977357;28;20486;-83
2023/10/15 01:11:28;;;;;;;2.97;1.50;;;9.00;1.00;;;;;;4979307;28;20404;-82
2023/10/15 01:13:55;;;;;;;3.55;1.60;;;9.40;1.00;;;;;;4988641;28;20409;-82
2023/10/15 01:16:22;;;;;;;2.80;1.70;;;9.50;1.00;;;;;;4975734;28;20468;-83
2023/10/15 01:21:32;;;;;;;4.80;2.10;;;9.60;1.00;;;;;;4979785;28;20383;-83
2023/10/15 01:24:06;;;;;;;3.88;1.35;;;9.60;1.00;;;;;;4987691;28;20912;-83
2023/10/15 01:26:39;;;;;;;4.22;1.60;;;9.30;1.00;;;;;;4991646;28;20408;-82
2023/10/15 01:29:08;;;;;;;3.90;1.73;;;9.30;1.00;;;;;;4987217;28;20392;-82
2023/10/15 01:31:51;;;;;;;2.70;1.88;;;9.30;1.00;;;;;;4989736;28;20435;-82
2023/10/15 01:34:21;;;;;;;2.90;1.50;;;9.40;1.00;;;;;;4975345;28;20467;-83
2023/10/15 01:36:48;;;;;;;2.63;1.50;;;9.40;1.00;;;;;;4978056;28;20423;-83
2023/10/15 01:39:21;;;;;;;3.05;1.35;;;9.30;1.00;;;;;;4980811;28;20400;-83
2023/10/15 01:41:50;;;;;;;3.70;1.80;;;9.20;1.00;;;;;;4996064;23;20445;-87
2023/10/15 01:44:19;;;;;;;4.80;1.80;;;9.30;1.00;;;;;;4959530;28;20406;-86
2023/10/15 01:49:30;;;;;;;3.20;1.70;;;9.20;1.00;;;;;;4980087;28;20438;-84
2023/10/15 01:52:09;;;;;;;3.20;1.50;;;10.10;1.00;;;;;;4955993;28;20414;-83
2023/10/15 01:54:37;;;;;;;3.58;1.95;;;9.70;1.00;;;;;;4982275;28;20386;-85
2023/10/15 01:57:06;;;;;;;4.13;1.60;;;9.40;1.00;;;;;;4981380;28;20907;-85
2023/10/15 01:59:41;;;;;;;2.88;1.58;;;9.40;1.00;;;;;;4966518;28;20402;-85
2023/10/15 02:02:08;;;;;;;4.30;1.50;;;9.40;1.00;;;;;;4970977;28;20404;-85
2023/10/15 02:04:42;;;;;;;3.70;1.60;;;9.50;1.00;;;;;;4987798;28;20427;-85
2023/10/15 02:07:12;;;;;;;2.33;1.35;;;9.20;1.00;;;;;;4972624;28;20513;-84
2023/10/15 02:09:38;;;;;;;5.05;1.60;;;9.30;1.00;;;;;;4969468;28;20559;-85
2023/10/15 02:12:07;;;;;;;2.95;1.60;;;9.10;1.00;;;;;;4993824;28;20455;-84
2023/10/15 02:14:33;;;;;;;4.20;1.70;;;9.50;1.00;;;;;;4978580;28;20412;-85
2023/10/15 02:16:59;;;;;;;5.20;1.90;;;9.50;1.00;;;;;;4979913;28;20404;-86
2023/10/15 02:19:34;;;;;;;3.60;1.70;;;9.60;1.00;;;;;;4953928;28;20415;-85
2023/10/15 02:22:07;;;;;;;4.13;1.70;;;9.30;1.00;;;;;;4949381;28;20414;-84
2023/10/15 02:24:34;;;;;;;5.20;1.60;;;9.60;1.00;;;;;;4957842;28;20826;-84
2023/10/15 02:27:05;;;;;;;2.33;1.42;;;9.50;1.00;;;;;;4957583;28;20772;-84
2023/10/15 02:32:06;;;;;;;2.53;1.40;;;9.60;1.00;;;;;;4973491;28;20784;-84
2023/10/15 02:34:31;;;;;;;2.72;1.50;;;9.50;1.00;;;;;;4970518;28;20407;-84
2023/10/15 02:37:03;;;;;;;4.47;1.90;;;9.00;1.00;;;;;;4957066;28;20396;-84
2023/10/15 02:39:36;;;;;;;1.90;1.20;;;9.30;1.00;;;;;;4956891;28;20403;-84
2023/10/15 02:42:02;;;;;;;3.05;1.20;;;8.90;1.00;;;;;;4956255;28;20423;-84
2023/10/15 02:44:32;;;;;;;3.55;1.60;;;9.50;1.00;;;;;;4955628;28;20416;-85
2023/10/15 02:47:07;;;;;;;2.70;1.30;;;9.50;1.00;;;;;;4956636;28;20408;-86
2023/10/15 02:49:50;;;;;;;3.53;1.40;;;9.40;1.00;;;;;;4974746;28;20392;-84
2023/10/15 02:52:19;;;;;;;2.80;1.53;;;9.10;1.00;;;;;;4956237;28;20416;-84
2023/10/15 02:54:45;;;;;;;3.70;1.40;;;9.40;1.00;;;;;;4972731;28;20396;-85
2023/10/15 02:57:15;;;;;;;2.58;1.48;;;9.40;1.00;;;;;;4948427;28;20434;-84
2023/10/15 02:59:50;;;;;;;3.47;1.50;;;9.30;1.00;;;;;;4950266;29;20416;-84
2023/10/15 03:02:20;;;;;;;3.10;1.65;;;9.40;1.00;;;;;;4954926;28;20418;-85
2023/10/15 03:04:55;;;;;;;2.10;1.40;;;9.30;1.00;;;;;;4973392;28;20400;-84
2023/10/15 03:07:30;;;;;;;3.13;1.45;;;8.90;1.00;;;;;;4956610;28;20414;-84
2023/10/15 03:09:57;;;;;;;3.30;1.80;;;9.20;1.00;;;;;;4973189;28;20508;-85
2023/10/15 03:12:23;;;;;;;2.40;1.33;;;9.30;1.00;;;;;;4984878;28;20545;-84
2023/10/15 03:14:49;;;;;;;2.05;1.35;;;9.50;1.00;;;;;;4978401;28;20437;-84
2023/10/15 03:17:24;;;;;;;3.85;1.52;;;9.50;1.00;;;;;;4956391;28;20483;-84
2023/10/15 03:19:52;;;;;;;4.25;1.80;;;9.40;1.00;;;;;;4956091;28;20557;-85
2023/10/15 03:22:17;;;;;;;3.00;1.40;;;8.90;1.00;;;;;;4971768;28;20436;-85
2023/10/15 03:24:44;;;;;;;2.33;1.23;;;9.40;1.00;;;;;;4947892;28;20403;-85
2023/10/15 03:27:16;;;;;;;4.10;1.70;;;9.20;1.00;;;;;;4955127;28;20408;-85
2023/10/15 03:29:42;;;;;;;5.37;1.50;;;9.20;1.00;;;;;;4972969;28;20395;-85
2023/10/15 03:32:12;;;;;;;2.85;1.60;;;9.40;1.00;;;;;;4973468;28;20780;-85
2023/10/15 03:35:32;;;;;;;2.03;1.40;;;9.40;1.00;;;;;;4955825;28;20463;-84
2023/10/15 03:37:27;;;;;;;3.35;1.50;;;9.40;1.00;;;;;;4962984;28;20455;-85
2023/10/15 03:39:56;;;;;;;5.37;1.80;;;9.40;1.00;;;;;;4956056;28;20769;-85
2023/10/15 03:42:27;;;;;;;2.83;1.40;;;9.40;1.00;;;;;;4956987;28;20435;-84
2023/10/15 03:44:59;;;;;;;3.00;1.77;;;9.90;1.00;;;;;;4959927;28;20831;-84
2023/10/15 03:47:25;;;;;;;3.28;2.08;;;8.90;1.00;;;;;;4954836;28;20419;-85
2023/10/15 03:49:51;;;;;;;2.95;1.58;;;9.40;1.00;;;;;;4955290;28;20420;-85
2023/10/15 03:52:20;;;;;;;2.78;1.25;;;9.30;1.00;;;;;;4955875;28;20434;-85
2023/10/15 03:54:47;;;;;;;3.60;1.88;;;9.40;1.00;;;;;;4955422;28;20416;-85
2023/10/15 03:57:17;;;;;;;3.70;1.70;;;9.40;1.00;;;;;;4949476;28;20399;-84
2023/10/15 03:59:44;;;;;;;3.17;1.47;;;9.40;1.00;;;;;;4968879;28;20469;-84
2023/10/15 04:02:26;;;;;;;4.40;1.70;;;9.20;1.00;;;;;;4968554;28;20407;-84
2023/10/15 04:05:14;;;;;;;4.93;1.75;;;9.50;1.00;;;;;;4949183;29;20425;-84
2023/10/15 04:07:49;;;;;;;2.50;1.50;;;9.10;1.00;;;;;;4963568;28;20414;-85
2023/10/15 04:10:23;;;;;;;3.58;1.38;;;9.40;1.00;;;;;;4986139;28;20816;-86
2023/10/15 04:12:49;;;;;;;4.37;1.90;;;9.60;1.00;;;;;;4975960;28;20503;-85
2023/10/15 04:15:16;;;;;;;2.90;1.50;;;9.60;1.00;;;;;;4958225;28;20498;-86
2023/10/15 04:17:45;;;;;;;3.42;1.52;;;9.50;1.00;;;;;;4975964;28;20412;-86
2023/10/15 04:20:15;;;;;;;2.70;1.40;;;9.40;1.00;;;;;;4976123;28;20861;-85
2023/10/15 04:22:44;;;;;;;2.37;1.40;;;9.40;1.00;;;;;;4959131;28;20470;-85
2023/10/15 04:25:23;;;;;;;2.00;1.50;;;9.40;1.00;;;;;;4958325;28;20408;-85
2023/10/15 04:27:50;;;;;;;2.80;1.40;;;9.50;1.00;;;;;;4958009;28;20420;-85
2023/10/15 04:30:16;;;;;;;3.97;1.85;;;9.40;1.00;;;;;;4958986;28;20424;-85
2023/10/15 04:35:16;;;;;;;3.67;1.97;;;9.40;1.00;;;;;;4976310;28;20431;-85
2023/10/15 04:37:44;;;;;;;5.82;1.83;;;9.20;1.00;;;;;;4974132;28;20476;-85
2023/10/15 04:40:11;;;;;;;4.22;1.65;;;9.40;1.00;;;;;;4950320;28;20403;-85
2023/10/15 04:42:59;;;;;;;6.45;1.90;;;9.50;1.00;;;;;;4976106;28;20427;-85
2023/10/15 04:45:35;;;;;;;4.13;1.50;;;9.60;1.00;;;;;;4971229;28;20493;-85
2023/10/15 04:48:01;;;;;;;4.80;1.40;;;9.60;1.00;;;;;;4973156;28;20566;-85
2023/10/15 04:50:29;;;;;;;2.10;1.23;;;9.50;1.00;;;;;;4977647;28;20908;-85
2023/10/15 04:53:12;;;;;;;6.10;1.80;;;9.30;1.00;;;;;;4958248;28;20412;-85
2023/10/15 04:55:38;;;;;;;2.90;1.30;;;9.50;1.00;;;;;;4950096;28;20419;-86
2023/10/15 04:58:04;;;;;;;3.60;1.58;;;9.30;1.00;;;;;;4974879;28;20396;-85
2023/10/15 05:00:30;;;;;;;1.70;1.30;;;9.40;1.00;;;;;;4957866;28;20833;-85
2023/10/15 05:02:55;;;;;;;2.43;1.43;;;9.40;1.00;;;;;;4975325;28;20470;-83
2023/10/15 05:05:22;;;;;;;3.93;1.43;;;10.20;1.00;;;;;;4962436;28;20991;-86
2023/10/15 05:07:48;;;;;;;2.55;1.30;;;9.50;1.00;;;;;;4977051;28;20414;-83
2023/10/15 05:10:13;;;;;;;2.97;1.50;;;9.50;1.00;;;;;;4958013;28;20404;-83
2023/10/15 05:12:39;;;;;;;3.97;1.77;;;9.50;1.00;;;;;;4957807;28;20411;-84
2023/10/15 05:15:05;;;;;;;3.77;1.97;;;9.10;1.00;;;;;;4956674;28;20420;-83
2023/10/15 05:17:31;;;;;;;2.73;1.37;;;9.50;1.00;;;;;;4974988;28;20388;-84
2023/10/15 05:19:57;;;;;;;4.07;1.70;;;9.50;1.00;;;;;;4958116;28;20403;-85
2023/10/15 05:22:22;;;;;;;3.85;1.65;;;9.50;1.00;;;;;;4957128;28;20400;-84
2023/10/15 05:24:48;;;;;;;3.00;1.50;;;9.50;1.00;;;;;;4957450;28;20400;-84
2023/10/15 05:27:13;;;;;;;4.50;1.70;;;9.70;1.00;;;;;;4956567;28;20420;-84
2023/10/15 05:29:39;;;;;;;2.90;1.60;;;9.60;1.00;;;;;;4964409;28;20392;-84
2023/10/15 05:32:06;;;;;;;3.87;1.43;;;9.80;1.00;;;;;;4986225;28;20474;-83
2023/10/15 05:34:32;;;;;;;3.47;1.63;;;9.70;1.00;;;;;;4957144;29;20433;-84
2023/10/15 05:36:57;;;;;;;3.40;1.60;;;9.80;1.00;;;;;;4959996;28;20411;-85
2023/10/15 05:39:24;;;;;;;3.10;0.90;;;9.80;1.00;;;;;;4963833;28;20417;-83
2023/10/15 05:41:50;;;;;;;4.15;1.17;;;9.00;1.00;;;;;;4977240;28;20475;-83
2023/10/15 05:44:18;;;;;;;1.90;1.30;;;8.60;1.00;;;;;;4957670;28;20455;-85
2023/10/15 05:46:43;;;;;;;2.93;1.20;;;8.70;1.00;;;;;;4958367;28;20494;-83
2023/10/15 05:49:11;;;;;;;2.60;1.20;;;8.60;1.00;;;;;;4962425;28;20414;-84
2023/10/15 05:51:37;;;;;;;4.07;1.67;;;8.70;1.70;;;;;;4978251;28;20392;-84
2023/10/15 05:54:04;;;;;;;3.20;1.92;;;8.50;21.50;;;;;;4961584;28;20408;-84
2023/10/15 05:56:33;;;;;;;3.95;1.65;;;9.40;50.70;;;;;;4986886;28;20915;-83
2023/10/15 05:58:59;;;;;;;3.28;1.70;;;8.90;77.30;;;;;;4966661;28;20399;-84
2023/10/15 06:01:24;;;;;;;2.72;1.30;;;8.70;16.70;;;;;;4963160;28;20395;-83
2023/10/15 06:03:50;;;;;;;3.53;1.37;;;8.40;11.50;;;;;;4951650;28;20431;-86
2023/10/15 06:06:16;;;;;;;11.97;2.30;;;8.50;25.40;;;;;;4957833;28;20396;-83
2023/10/15 06:08:42;;;;;;;4.33;1.80;;;8.60;44.80;;;;;;4982668;28;20392;-83
2023/10/15 06:11:08;;;;;;;5.55;1.80;;;8.20;31.50;;;;;;4965351;28;20404;-83
2023/10/15 06:13:33;;;;;;;3.40;1.90;;;8.60;67.40;;;;;;4983427;28;20427;-83
2023/10/15 06:16:00;;;;;;;27.50;4.60;;;8.20;47.40;;;;;;4959387;28;20420;-83
2023/10/15 06:18:26;;;;;;;4.22;2.00;;;8.60;90.50;;;;;;4966202;28;20408;-84
2023/10/15 06:20:54;;;;;;;2.10;1.90;;;8.80;91.90;;;;;;4964400;28;20455;-83
2023/10/15 06:23:20;;;;;;;4.45;1.60;;;8.70;92.20;;;;;;4973335;28;20400;-83
2023/10/15 06:25:46;;;;;;;4.55;1.70;;;8.60;93.20;;;;;;4971429;28;20455;-83
2023/10/15 06:28:14;;;;;;;2.70;1.50;;;8.60;93.90;;;;;;4972251;28;20464;-83
2023/10/15 06:30:41;;;;;;;2.90;1.50;;;8.60;91.00;;;;;;4989637;28;20396;-83
2023/10/15 06:33:06;;;;;;;3.30;1.38;;;8.70;81.00;;;;;;4969450;28;20467;-83
2023/10/15 06:35:35;;;;;;;2.63;1.70;;;8.90;84.30;;;;;;4967191;28;20404;-84
2023/10/15 06:38:03;;;;;;;2.00;1.80;;;9.70;92.80;;;;;;4967370;28;20411;-83
2023/10/15 06:40:30;;;;;;;3.55;2.33;;;8.80;94.90;;;;;;4965858;28;20772;-84
2023/10/15 06:43:05;;;;;;;3.90;2.10;;;8.90;96.00;;;;;;4968097;28;20988;-84
2023/10/15 06:45:34;;;;;;;2.45;1.70;;;9.30;95.20;;;;;;4967237;28;20443;-82
2023/10/15 06:48:00;;;;;;;2.75;1.80;;;8.90;94.90;;;;;;4966447;28;20404;-83
2023/10/15 06:50:25;;;;;;;3.38;1.98;;;8.90;96.40;;;;;;4961308;28;20798;-83
2023/10/15 06:52:52;;;;;;;5.22;2.15;;;8.80;50.50;;;;;;4989985;28;20404;-82
2023/10/15 06:55:20;;;;;;;2.67;2.00;;;8.60;80.70;;;;;;4967069;28;20412;-83
2023/10/15 06:57:46;;;;;;;3.20;1.90;;;9.60;83.90;;;;;;4965695;28;20468;-82
2023/10/15 07:00:12;;;;;;;3.40;2.20;;;9.50;90.40;;;;;;4964807;28;20468;-82
2023/10/15 07:02:38;;;;;;;3.20;2.40;;;9.40;91.50;;;;;;4963575;28;20419;-82
2023/10/15 07:05:05;;;;;;;3.22;2.10;;;9.10;78.50;;;;;;4978477;28;20788;-83
2023/10/15 07:07:33;;;;;;;2.70;2.50;;;9.20;44.20;;;;;;4958968;28;20400;-84
2023/10/15 07:10:06;;;;;;;2.55;2.35;;;9.90;66.20;;;;;;4959946;28;20495;-83
2023/10/15 07:12:32;;;;;;;2.70;1.93;;;9.20;34.90;;;;;;4957188;28;20784;-84
2023/10/15 07:14:58;;;;;;;3.03;1.92;;;9.20;38.30;;;;;;4958022;28;20479;-84
2023/10/15 07:17:24;;;;;;;3.50;1.80;;;10.00;30.90;;;;;;4957835;28;20779;-85
2023/10/15 07:19:49;;;;;;;5.30;2.40;;;8.80;16.40;;;;;;4954491;28;20406;-84
2023/10/15 07:22:16;;;;;;;2.83;2.30;;;9.20;34.60;;;;;;4954803;28;20892;-84
2023/10/15 07:24:41;;;;;;;4.00;2.40;;;9.60;11.60;;;;;;4963313;28;20408;-85
2023/10/15 07:27:30;;;;;;;5.05;2.80;;;9.20;11.10;;;;;;4970036;28;20418;-84
2023/10/15 07:29:55;;;;;;;3.40;2.50;;;9.50;19.30;;;;;;4961975;28;20402;-84
2023/10/15 07:32:30;;;;;;;2.40;1.80;;;9.10;13.00;;;;;;4954814;28;21001;-84
2023/10/15 07:35:24;;;;;;;3.60;1.97;;;10.20;27.60;;;;;;4965816;28;20463;-85
2023/10/15 07:38:18;;;;;;;;;;;;;;;;;;;;;
2023/10/15 07:40:50;;;;;;;3.27;2.17;;;10.20;1.00;;;;;;4971481;28;20412;-83
2023/10/15 07:43:15;;;;;;;3.20;1.80;;;11.40;10.10;;;;;;4956643;28;20415;-84
2023/10/15 07:45:47;;;;;;;4.15;2.13;;;10.20;10.10;;;;;;4955476;28;20775;-84
2023/10/15 07:48:18;;;;;;;1.65;1.50;;;9.50;12.20;;;;;;4958295;28;20475;-84
2023/10/15 07:50:46;;;;;;;1.95;1.67;;;10.20;11.60;;;;;;4959403;28;20827;-84
2023/10/15 07:53:12;;;;;;;4.20;2.20;;;9.40;11.60;;;;;;4959269;28;20451;-86
2023/10/15 07:55:48;;;;;;;;;;;;;;;;;;;;;
2023/10/15 07:58:27;;;;;;;3.20;2.00;;;10.10;1.00;;;;;;4974447;28;20476;-84
2023/10/15 08:00:53;;;;;;;3.35;2.10;;;11.20;1.00;;;;;;4978008;28;20499;-84
2023/10/15 08:03:21;;;;;;;3.90;2.20;;;11.30;1.00;;;;;;4979465;28;20416;-83
2023/10/15 08:05:49;;;;;;;2.10;1.90;;;10.50;1.00;;;;;;4975614;28;20410;-82
2023/10/15 08:08:15;;;;;;;4.15;1.80;;;9.50;1.00;;;;;;4973984;28;20426;-82
2023/10/15 08:10:41;;;;;;;2.30;1.97;;;9.60;1.00;;;;;;4977962;28;20431;-82
2023/10/15 08:13:07;;;;;;;2.65;1.90;;;9.50;1.00;;;;;;4983438;28;20412;-82
2023/10/15 08:15:33;;;;;;;1.90;1.70;;;9.90;1.00;;;;;;4961680;28;20988;-81
2023/10/15 08:18:01;;;;;;;2.55;1.73;;;9.80;1.40;;;;;;4982351;28;20392;-81
2023/10/15 08:20:28;;;;;;;3.35;2.28;;;9.20;8.40;;;;;;4972454;28;20398;-83
2023/10/15 08:22:53;;;;;;;5.78;3.17;;;9.90;6.40;;;;;;4961931;28;20395;-83
2023/10/15 08:25:22;;;;;;;2.95;2.65;;;9.80;1.00;;;;;;4978111;28;20404;-84
2023/10/15 08:27:48;;;;;;;3.30;2.40;;;10.10;5.90;;;;;;4980153;28;20444;-84
2023/10/15 08:30:15;;;;;;;3.15;2.60;;;10.10;2.20;;;;;;4956338;28;20480;-82
2023/10/15 08:32:41;;;;;;;3.05;2.00;;;10.00;1.00;;;;;;4977424;28;20428;-82
2023/10/15 08:35:16;;;;;;;3.63;2.38;;;10.20;1.00;;;;;;4961107;28;20412;-83
2023/10/15 08:37:45;;;;;;;3.97;2.30;;;10.60;1.00;;;;;;4962780;28;20404;-83
2023/10/15 08:40:21;;;;;;;3.40;2.42;;;11.40;1.00;;;;;;4958052;28;20420;-84
2023/10/15 08:43:13;;;;;;;4.15;2.50;;;10.70;1.00;;;;;;5006514;23;20457;-83
2023/10/15 08:45:42;;;;;;;5.47;2.20;;;10.80;1.00;;;;;;4990704;28;20455;-84
2023/10/15 08:48:11;;;;;;;3.28;2.42;;;10.70;1.00;;;;;;4996437;28;20410;-83
2023/10/15 08:50:37;;;;;;;3.50;2.30;;;10.80;1.00;;;;;;4994732;28;20420;-83
2023/10/15 08:53:06;;;;;;;4.45;2.53;;;10.80;1.00;;;;;;5003375;28;20443;-83
2023/10/15 08:55:33;;;;;;;4.03;1.90;;;10.70;1.00;;;;;;4989222;28;20408;-83
2023/10/15 08:57:59;;;;;;;3.22;2.03;;;10.80;1.00;;;;;;4990664;28;20480;-83
2023/10/15 09:00:25;;;;;;;3.83;1.75;;;10.80;1.00;;;;;;4997435;28;20411;-83
2023/10/15 09:02:56;;;;;;;3.17;1.90;;;10.90;1.00;;;;;;5001099;28;20493;-83
2023/10/15 09:05:22;;;;;;;3.00;1.90;;;10.60;1.00;;;;;;4987331;28;20419;-83
2023/10/15 09:07:49;;;;;;;2.60;1.70;;;10.80;1.00;;;;;;4999427;28;20424;-83
2023/10/15 09:10:16;;;;;;;3.00;1.70;;;10.50;1.00;;;;;;4990141;28;20414;-82
2023/10/15 09:12:42;;;;;;;3.15;1.70;;;10.90;1.00;;;;;;4989642;28;20433;-84
2023/10/15 09:15:16;;;;;;;3.73;2.10;;;11.00;1.00;;;;;;4985644;28;20412;-82
2023/10/15 09:17:49;;;;;;;5.05;2.22;;;11.20;1.00;;;;;;4986760;28;20410;-82
2023/10/15 09:20:25;;;;;;;3.58;2.08;;;11.10;1.00;;;;;;4985529;28;20416;-83
2023/10/15 09:22:51;;;;;;;5.15;2.20;;;11.40;1.00;;;;;;4982334;28;20424;-83
2023/10/15 09:25:17;;;;;;;3.27;1.87;;;11.30;1.00;;;;;;4984877;28;20535;-84
2023/10/15 09:27:46;;;;;;;3.50;1.80;;;11.90;1.00;;;;;;4991581;28;20620;-84
2023/10/15 09:30:24;;;;;;;4.07;1.90;;;11.50;1.00;;;;;;4994643;28;20842;-83
2023/10/15 09:32:49;;;;;;;3.23;1.60;;;11.50;1.00;;;;;;4991936;28;20488;-84
2023/10/15 09:35:16;;;;;;;3.77;1.70;;;10.70;1.00;;;;;;4991160;28;20418;-83
2023/10/15 09:37:42;;;;;;;4.85;1.85;;;11.70;1.00;;;;;;4990213;28;20469;-83
2023/10/15 09:40:31;;;;;;;4.60;2.00;;;11.40;1.00;;;;;;4996028;28;20406;-83
2023/10/15 09:42:56;;;;;;;2.92;1.80;;;11.50;1.00;;;;;;4989879;28;20431;-84
2023/10/15 09:45:25;;;;;;;3.67;1.80;;;11.20;1.00;;;;;;4999952;28;20401;-85
2023/10/15 09:47:57;;;;;;;5.20;1.60;;;11.40;1.00;;;;;;4985833;28;20920;-84
2023/10/15 09:50:38;;;;;;;3.33;1.70;;;11.40;1.00;;;;;;4986375;28;20561;-83
2023/10/15 09:53:09;;;;;;;5.15;1.60;;;11.40;1.00;;;;;;4990699;28;20410;-84
2023/10/15 09:55:35;;;;;;;3.05;1.58;;;11.60;1.00;;;;;;4988922;28;20777;-84
2023/10/15 09:58:04;;;;;;;2.85;1.20;;;11.80;1.00;;;;;;4979476;28;20974;-85
2023/10/15 10:03:48;;;;;;;1.70;1.50;;;12.30;1.00;;;;;;4970969;28;20408;-84
2023/10/15 10:06:32;;;;;;;2.78;1.30;;;12.30;1.00;;;;;;4988217;28;20784;-84
2023/10/15 10:09:23;;;;;;;2.30;1.40;;;12.40;1.00;;;;;;4987256;28;20427;-84
2023/10/15 10:12:13;;;;;;;3.33;1.02;;;12.30;1.00;;;;;;4999079;28;20419;-85
2023/10/15 10:15:00;;;;;;;3.40;1.50;;;12.10;1.00;;;;;;4978301;28;21147;-85
2023/10/15 10:17:28;;;;;;;2.60;1.30;;;12.40;1.00;;;;;;4979724;28;20412;-86
2023/10/15 10:19:54;;;;;;;2.40;1.10;;;12.40;1.00;;;;;;4987400;28;20932;-86
2023/10/15 10:22:29;;;;;;;3.60;1.50;;;12.40;1.00;;;;;;4986008;28;20404;-84
2023/10/15 10:24:58;;;;;;;1.45;1.30;;;12.40;1.00;;;;;;4988809;28;20398;-86
2023/10/15 10:27:25;;;;;;;3.35;1.70;;;12.60;1.00;;;;;;4976888;28;20468;-86
2023/10/15 10:29:52;;;;;;;3.90;1.52;;;12.50;1.00;;;;;;4991515;28;20412;-84
2023/10/15 10:32:23;;;;;;;3.03;1.50;;;12.50;1.00;;;;;;4985452;28;20519;-84
2023/10/15 10:35:23;;;;;;;4.22;1.70;;;12.50;1.00;;;;;;4977314;28;20396;-84
2023/10/15 10:38:10;;;;;;;2.17;1.23;;;12.90;1.00;;;;;;4976380;28;21096;-84
2023/10/15 10:40:52;;;;;;;2.30;1.17;;;12.80;1.00;;;;;;4984147;28;20895;-84
2023/10/15 10:43:24;;;;;;;4.03;1.33;;;13.80;1.00;;;;;;4984835;28;20410;-84
2023/10/15 10:46:01;;;;;;;2.15;1.40;;;12.90;1.00;;;;;;4990181;28;20410;-84
2023/10/15 10:48:33;;;;;;;2.15;1.30;;;12.50;1.00;;;;;;4991396;28;20395;-84
2023/10/15 10:51:08;;;;;;;2.35;1.05;;;12.50;1.00;;;;;;4989867;28;20403;-83
2023/10/15 10:53:37;;;;;;;2.05;1.08;;;12.30;1.00;;;;;;4981862;28;20442;-85
2023/10/15 10:56:07;;;;;;;3.50;1.70;;;12.00;1.00;;;;;;4987476;28;20419;-84
2023/10/15 10:58:35;;;;;;;2.70;1.40;;;12.20;1.00;;;;;;4992830;28;20506;-84
2023/10/15 11:01:01;;;;;;;2.13;1.57;;;11.90;1.00;;;;;;5014466;28;20381;-84
2023/10/15 11:03:28;;;;;;;3.20;1.30;;;11.70;1.00;;;;;;5017549;28;20399;-84
2023/10/15 11:05:55;;;;;;;2.53;1.20;;;11.70;1.00;;;;;;4988783;28;20418;-84
2023/10/15 11:08:22;;;;;;;1.92;1.20;;;11.90;1.00;;;;;;4991102;28;20931;-83
2023/10/15 11:10:48;;;;;;;2.45;1.20;;;11.70;1.00;;;;;;5006490;28;20448;-83
2023/10/15 11:13:17;;;;;;;2.42;1.75;;;11.70;1.00;;;;;;5005529;28;20442;-83
2023/10/15 11:15:44;;;;;;;3.63;1.20;;;11.80;1.00;;;;;;4999458;28;20406;-83
2023/10/15 11:18:10;;;;;;;2.53;1.30;;;11.90;1.00;;;;;;5002220;28;20408;-83
2023/10/15 11:20:36;;;;;;;2.97;1.13;;;11.90;1.00;;;;;;4990163;28;20402;-85
2023/10/15 11:23:06;;;;;;;1.40;1.10;;;11.90;1.00;;;;;;4984533;28;20930;-84
2023/10/15 11:25:34;;;;;;;2.57;1.40;;;12.00;1.00;;;;;;4988089;28;20506;-84
2023/10/15 11:28:10;;;;;;;1.75;1.20;;;12.30;1.00;;;;;;4990990;28;20430;-84
2023/10/15 11:30:45;;;;;;;1.65;1.33;;;12.20;1.00;;;;;;4996552;28;20422;-85
2023/10/15 11:33:12;;;;;;;2.42;1.50;;;14.40;1.00;;;;;;4989666;28;20422;-84
2023/10/15 11:35:56;;;;;;;2.17;1.20;;;13.60;1.00;;;;;;5008273;28;20390;-84
2023/10/15 11:38:35;;;;;;;2.33;1.33;;;14.00;1.00;;;;;;5005050;28;20436;-85
2023/10/15 11:41:02;;;;;;;3.42;1.50;;;13.90;1.00;;;;;;5002670;28;20410;-84
2023/10/15 11:43:30;;;;;;;1.38;1.00;;;13.90;1.00;;;;;;4980437;28;20420;-87
2023/10/15 11:45:59;;;;;;;1.65;1.13;;;14.30;1.00;;;;;;4978751;28;20398;-87
2023/10/15 11:48:26;;;;;;;1.30;0.98;;;14.60;1.00;;;;;;4977528;28;20414;-87
2023/10/15 11:50:52;;;;;;;1.60;0.90;;;14.50;1.00;;;;;;4981232;28;20439;-86
2023/10/15 11:53:20;;;;;;;1.20;1.00;;;14.40;1.00;;;;;;4982760;28;20439;-85
2023/10/15 11:55:52;;;;;;;1.40;0.90;;;13.90;1.00;;;;;;4992567;28;20419;-86
2023/10/15 11:58:19;;;;;;;3.10;1.00;;;13.70;1.00;;;;;;4990730;28;20465;-86
2023/10/15 12:00:52;;;;;;;3.30;1.10;;;13.90;1.00;;;;;;4989733;28;20418;-88
2023/10/15 12:03:20;;;;;;;2.20;0.90;;;14.60;1.00;;;;;;4981435;28;20423;-86
2023/10/15 12:05:46;;;;;;;2.97;1.10;;;14.40;1.00;;;;;;4983047;28;20535;-87
2023/10/15 12:08:12;;;;;;;1.50;0.90;;;15.50;1.00;;;;;;4986761;28;20978;-86
2023/10/15 12:10:42;;;;;;;2.10;1.00;;;14.50;1.00;;;;;;4981946;28;20965;-87
2023/10/15 12:13:12;;;;;;;2.20;1.00;;;14.70;1.00;;;;;;4993677;28;20453;-87
2023/10/15 12:15:37;;;;;;;2.40;1.10;;;15.10;1.00;;;;;;4992345;28;20399;-87
2023/10/15 12:18:04;;;;;;;1.43;1.00;;;15.50;1.00;;;;;;4986762;28;20411;-86
2023/10/15 12:20:29;;;;;;;1.80;1.10;;;15.50;1.00;;;;;;4991460;28;20953;-85
2023/10/15 12:22:55;;;;;;;2.00;1.20;;;15.50;1.00;;;;;;4988191;28;20412;-87
2023/10/15 12:25:21;;;;;;;2.60;1.35;;;14.30;1.00;;;;;;4995031;28;20442;-86
2023/10/15 12:27:47;;;;;;;1.75;0.95;;;13.70;1.00;;;;;;4989828;28;20487;-83
2023/10/15 12:30:28;;;;;;;2.17;1.17;;;13.50;1.00;;;;;;4988738;28;20460;-86
2023/10/15 12:32:54;;;;;;;1.33;1.10;;;13.30;1.00;;;;;;4987743;28;20414;-87
2023/10/15 12:35:21;;;;;;;2.25;1.25;;;12.90;1.00;;;;;;4988308;28;20510;-86
2023/10/15 12:37:47;;;;;;;1.90;1.60;;;13.60;1.00;;;;;;4984278;28;20409;-86
2023/10/15 12:40:21;;;;;;;1.50;0.87;;;13.10;1.00;;;;;;4988234;28;20415;-86
2023/10/15 12:42:46;;;;;;;2.65;1.30;;;12.20;1.00;;;;;;4992329;28;20447;-85
2023/10/15 12:45:13;;;;;;;3.78;1.10;;;13.00;1.00;;;;;;4985992;28;20422;-85
2023/10/15 12:47:42;;;;;;;2.80;1.10;;;14.50;1.00;;;;;;4986596;28;20402;-88
2023/10/15 12:50:09;;;;;;;2.10;1.40;;;14.30;1.00;;;;;;4994255;28;20448;-86
2023/10/15 12:52:35;;;;;;;3.22;1.30;;;15.10;1.00;;;;;;4990342;28;20433;-87
2023/10/15 12:55:01;;;;;;;3.30;1.13;;;14.10;1.00;;;;;;4982804;28;20511;-86
2023/10/15 12:57:27;;;;;;;1.53;1.03;;;14.90;1.00;;;;;;4992292;28;20403;-89
2023/10/15 12:59:52;;;;;;;1.53;1.03;;;18.00;1.00;;;;;;4995634;28;20458;-86
2023/10/15 13:02:20;;;;;;;2.40;1.02;;;14.60;1.00;;;;;;5006920;28;20917;-85
2023/10/15 13:04:46;;;;;;;2.50;1.10;;;15.10;1.00;;;;;;5007015;28;20945;-87
2023/10/15 13:07:12;;;;;;;2.50;1.10;;;17.60;1.00;;;;;;5005231;28;20890;-85
2023/10/15 13:09:40;;;;;;;2.03;1.23;;;15.20;1.00;;;;;;4991953;28;20491;-89
2023/10/15 13:12:10;;;;;;;1.30;1.00;;;16.90;1.00;;;;;;4990097;28;20489;-86
2023/10/15 13:14:35;;;;;;;1.10;0.90;;;14.00;1.00;;;;;;4980516;28;20777;-86
2023/10/15 13:17:01;;;;;;;1.20;1.00;;;13.80;1.00;;;;;;4991375;28;20502;-86
2023/10/15 13:19:27;;;;;;;1.52;1.00;;;12.90;1.00;;;;;;4994012;28;20398;-88
2023/10/15 13:21:53;;;;;;;2.10;1.10;;;13.40;1.00;;;;;;4993127;28;20415;-87
2023/10/15 13:24:19;;;;;;;1.47;0.80;;;12.70;1.00;;;;;;4996730;28;20402;-88
2023/10/15 13:26:47;;;;;;;1.20;0.70;;;13.30;1.00;;;;;;5000577;28;20740;-85
2023/10/15 13:29:14;;;;;;;1.00;0.80;;;14.80;1.00;;;;;;4990103;28;20478;-87
2023/10/15 13:31:40;;;;;;;1.70;0.85;;;14.20;1.00;;;;;;4997087;28;20444;-88